sensor_id;sensor_type;location;lat;lon;timestamp;P1;durP1;ratioP1;P2;durP2;ratioP2
21894;SDS011;11112;51.270;7.224;2023-05-07T00:02:21;7.75;;;3.30;;
21894;SDS011;11112;51.270;7.224;2023-05-07T00:04:48;5.32;;;2.40;;
21894;SDS011;11112;51.270;7.224;2023-05-07T00:07:20;6.68;;;2.72;;
21894;SDS011;11112;51.270;7.224;2023-05-07T00:09:47;7.82;;;2.60;;
21894;SDS011;11112;51.270;7.224;2023-05-07T00:12:15;6.63;;;2.95;;
21894;SDS011;11112;51.270;7.224;2023-05-07T00:14:42;4.47;;;2.30;;
21894;SDS011;11112;51.270;7.224;2023-05-07T00:17:12;4.70;;;1.95;;
21894;SDS011;11112;51.270;7.224;2023-05-07T00:19:39;5.32;;;2.03;;
21894;SDS011;11112;51.270;7.224;2023-05-07T00:22:06;7.05;;;2.20;;
21894;SDS011;11112;51.270;7.224;2023-05-07T00:24:35;3.25;;;1.90;;
21894;SDS011;11112;51.270;7.224;2023-05-07T00:27:02;5.80;;;2.20;;
21894;SDS011;11112;51.270;7.224;2023-05-07T00:29:30;4.22;;;2.00;;
21894;SDS011;11112;51.270;7.224;2023-05-07T00:31:58;4.32;;;2.00;;
21894;SDS011;11112;51.270;7.224;2023-05-07T00:34:27;3.38;;;2.20;;
21894;SDS011;11112;51.270;7.224;2023-05-07T00:36:54;5.07;;;2.45;;
21894;SDS011;11112;51.270;7.224;2023-05-07T00:39:22;7.30;;;2.60;;
21894;SDS011;11112;51.270;7.224;2023-05-07T00:41:50;3.88;;;2.35;;
21894;SDS011;11112;51.270;7.224;2023-05-07T00:44:18;5.88;;;2.83;;
21894;SDS011;11112;51.270;7.224;2023-05-07T00:46:45;5.55;;;2.42;;
21894;SDS011;11112;51.270;7.224;2023-05-07T00:49:14;5.13;;;2.40;;
21894;SDS011;11112;51.270;7.224;2023-05-07T00:51:44;3.50;;;2.00;;
21894;SDS011;11112;51.270;7.224;2023-05-07T00:54:12;7.22;;;2.00;;
21894;SDS011;11112;51.270;7.224;2023-05-07T00:56:41;4.70;;;2.30;;
21894;SDS011;11112;51.270;7.224;2023-05-07T00:59:08;5.40;;;2.92;;
21894;SDS011;11112;51.270;7.224;2023-05-07T01:01:37;5.72;;;3.10;;
21894;SDS011;11112;51.270;7.224;2023-05-07T01:04:05;5.95;;;2.53;;
21894;SDS011;11112;51.270;7.224;2023-05-07T01:06:32;5.03;;;2.42;;
21894;SDS011;11112;51.270;7.224;2023-05-07T01:09:02;5.38;;;2.30;;
21894;SDS011;11112;51.270;7.224;2023-05-07T01:11:30;5.82;;;2.47;;
21894;SDS011;11112;51.270;7.224;2023-05-07T01:13:57;3.85;;;2.45;;
21894;SDS011;11112;51.270;7.224;2023-05-07T01:16:26;4.22;;;2.88;;
21894;SDS011;11112;51.270;7.224;2023-05-07T01:18:54;6.90;;;2.40;;
21894;SDS011;11112;51.270;7.224;2023-05-07T01:21:22;7.07;;;2.30;;
21894;SDS011;11112;51.270;7.224;2023-05-07T01:23:57;5.00;;;2.90;;
21894;SDS011;11112;51.270;7.224;2023-05-07T01:26:24;6.35;;;2.22;;
21894;SDS011;11112;51.270;7.224;2023-05-07T01:28:52;6.47;;;2.63;;
21894;SDS011;11112;51.270;7.224;2023-05-07T01:31:19;5.43;;;2.33;;
21894;SDS011;11112;51.270;7.224;2023-05-07T01:33:47;3.75;;;2.20;;
21894;SDS011;11112;51.270;7.224;2023-05-07T01:36:17;4.93;;;1.98;;
21894;SDS011;11112;51.270;7.224;2023-05-07T01:38:48;6.32;;;2.28;;
21894;SDS011;11112;51.270;7.224;2023-05-07T01:41:16;5.15;;;2.10;;
21894;SDS011;11112;51.270;7.224;2023-05-07T01:43:45;4.03;;;1.90;;
21894;SDS011;11112;51.270;7.224;2023-05-07T01:46:13;5.65;;;2.50;;
21894;SDS011;11112;51.270;7.224;2023-05-07T01:48:42;3.22;;;2.00;;
21894;SDS011;11112;51.270;7.224;2023-05-07T01:51:11;3.08;;;1.80;;
21894;SDS011;11112;51.270;7.224;2023-05-07T01:53:40;5.38;;;2.40;;
21894;SDS011;11112;51.270;7.224;2023-05-07T01:56:08;5.40;;;2.10;;
21894;SDS011;11112;51.270;7.224;2023-05-07T01:58:38;4.03;;;2.22;;
21894;SDS011;11112;51.270;7.224;2023-05-07T02:01:06;5.15;;;2.13;;
21894;SDS011;11112;51.270;7.224;2023-05-07T02:03:33;3.58;;;1.90;;
21894;SDS011;11112;51.270;7.224;2023-05-07T02:06:02;6.15;;;1.75;;
21894;SDS011;11112;51.270;7.224;2023-05-07T02:08:31;3.72;;;1.75;;
21894;SDS011;11112;51.270;7.224;2023-05-07T02:10:58;4.65;;;2.47;;
21894;SDS011;11112;51.270;7.224;2023-05-07T02:13:29;4.80;;;2.00;;
21894;SDS011;11112;51.270;7.224;2023-05-07T02:16:04;4.50;;;2.10;;
21894;SDS011;11112;51.270;7.224;2023-05-07T02:18:32;6.40;;;2.25;;
21894;SDS011;11112;51.270;7.224;2023-05-07T02:21:00;4.93;;;2.00;;
21894;SDS011;11112;51.270;7.224;2023-05-07T02:23:27;3.70;;;2.05;;
21894;SDS011;11112;51.270;7.224;2023-05-07T02:25:55;6.03;;;2.20;;
21894;SDS011;11112;51.270;7.224;2023-05-07T02:28:23;3.70;;;2.35;;
21894;SDS011;11112;51.270;7.224;2023-05-07T02:30:54;6.68;;;1.80;;
21894;SDS011;11112;51.270;7.224;2023-05-07T02:33:25;2.95;;;1.40;;
21894;SDS011;11112;51.270;7.224;2023-05-07T02:35:53;4.57;;;1.77;;
21894;SDS011;11112;51.270;7.224;2023-05-07T02:38:21;4.80;;;1.75;;
21894;SDS011;11112;51.270;7.224;2023-05-07T02:40:49;5.32;;;2.03;;
21894;SDS011;11112;51.270;7.224;2023-05-07T02:43:17;2.78;;;1.90;;
21894;SDS011;11112;51.270;7.224;2023-05-07T02:45:44;3.70;;;2.63;;
21894;SDS011;11112;51.270;7.224;2023-05-07T02:48:11;3.47;;;1.92;;
21894;SDS011;11112;51.270;7.224;2023-05-07T02:50:40;4.15;;;1.90;;
21894;SDS011;11112;51.270;7.224;2023-05-07T02:53:07;5.50;;;1.90;;
21894;SDS011;11112;51.270;7.224;2023-05-07T02:55:36;4.93;;;2.10;;
21894;SDS011;11112;51.270;7.224;2023-05-07T02:58:03;8.55;;;2.20;;
21894;SDS011;11112;51.270;7.224;2023-05-07T03:00:30;4.32;;;2.00;;
21894;SDS011;11112;51.270;7.224;2023-05-07T03:02:58;4.82;;;1.80;;
21894;SDS011;11112;51.270;7.224;2023-05-07T03:05:25;3.70;;;1.98;;
21894;SDS011;11112;51.270;7.224;2023-05-07T03:07:56;5.95;;;1.98;;
21894;SDS011;11112;51.270;7.224;2023-05-07T03:10:23;4.75;;;2.10;;
21894;SDS011;11112;51.270;7.224;2023-05-07T03:12:51;2.55;;;1.48;;
21894;SDS011;11112;51.270;7.224;2023-05-07T03:15:18;3.95;;;1.65;;
21894;SDS011;11112;51.270;7.224;2023-05-07T03:17:46;3.13;;;1.58;;
21894;SDS011;11112;51.270;7.224;2023-05-07T03:20:16;5.22;;;2.05;;
21894;SDS011;11112;51.270;7.224;2023-05-07T03:22:46;2.20;;;1.45;;
21894;SDS011;11112;51.270;7.224;2023-05-07T03:25:16;4.53;;;1.67;;
21894;SDS011;11112;51.270;7.224;2023-05-07T03:27:44;4.70;;;1.60;;
21894;SDS011;11112;51.270;7.224;2023-05-07T03:30:14;4.03;;;1.85;;
21894;SDS011;11112;51.270;7.224;2023-05-07T03:32:42;3.92;;;1.55;;
21894;SDS011;11112;51.270;7.224;2023-05-07T03:35:11;4.70;;;1.95;;
21894;SDS011;11112;51.270;7.224;2023-05-07T03:37:39;4.93;;;2.00;;
21894;SDS011;11112;51.270;7.224;2023-05-07T03:40:07;5.30;;;2.00;;
21894;SDS011;11112;51.270;7.224;2023-05-07T03:42:37;5.80;;;2.00;;
21894;SDS011;11112;51.270;7.224;2023-05-07T03:45:05;5.03;;;1.90;;
21894;SDS011;11112;51.270;7.224;2023-05-07T03:47:35;5.63;;;1.90;;
21894;SDS011;11112;51.270;7.224;2023-05-07T03:50:02;2.83;;;1.90;;
21894;SDS011;11112;51.270;7.224;2023-05-07T03:52:30;9.15;;;1.90;;
21894;SDS011;11112;51.270;7.224;2023-05-07T03:54:58;4.22;;;1.95;;
21894;SDS011;11112;51.270;7.224;2023-05-07T03:57:25;6.38;;;1.90;;
21894;SDS011;11112;51.270;7.224;2023-05-07T03:59:55;4.05;;;1.67;;
21894;SDS011;11112;51.270;7.224;2023-05-07T04:02:24;4.78;;;1.80;;
21894;SDS011;11112;51.270;7.224;2023-05-07T04:04:52;3.95;;;1.75;;
21894;SDS011;11112;51.270;7.224;2023-05-07T04:07:19;3.33;;;1.90;;
21894;SDS011;11112;51.270;7.224;2023-05-07T04:09:49;6.03;;;2.00;;
21894;SDS011;11112;51.270;7.224;2023-05-07T04:12:16;4.18;;;1.90;;
21894;SDS011;11112;51.270;7.224;2023-05-07T04:14:44;3.92;;;1.73;;
21894;SDS011;11112;51.270;7.224;2023-05-07T04:17:14;7.35;;;1.52;;
21894;SDS011;11112;51.270;7.224;2023-05-07T04:19:42;4.45;;;1.50;;
21894;SDS011;11112;51.270;7.224;2023-05-07T04:22:10;4.30;;;1.77;;
21894;SDS011;11112;51.270;7.224;2023-05-07T04:24:40;2.72;;;1.70;;
21894;SDS011;11112;51.270;7.224;2023-05-07T04:27:09;3.92;;;1.75;;
21894;SDS011;11112;51.270;7.224;2023-05-07T04:29:37;2.78;;;1.60;;
21894;SDS011;11112;51.270;7.224;2023-05-07T04:32:07;4.22;;;1.83;;
21894;SDS011;11112;51.270;7.224;2023-05-07T04:34:36;5.68;;;1.63;;
21894;SDS011;11112;51.270;7.224;2023-05-07T04:37:03;5.50;;;1.80;;
21894;SDS011;11112;51.270;7.224;2023-05-07T04:39:32;3.92;;;1.65;;
21894;SDS011;11112;51.270;7.224;2023-05-07T04:42:00;2.45;;;1.77;;
21894;SDS011;11112;51.270;7.224;2023-05-07T04:44:28;2.70;;;1.88;;
21894;SDS011;11112;51.270;7.224;2023-05-07T04:46:56;5.18;;;2.40;;
21894;SDS011;11112;51.270;7.224;2023-05-07T04:49:24;5.82;;;2.13;;
21894;SDS011;11112;51.270;7.224;2023-05-07T04:51:54;6.15;;;2.10;;
21894;SDS011;11112;51.270;7.224;2023-05-07T04:54:23;3.97;;;2.00;;
21894;SDS011;11112;51.270;7.224;2023-05-07T04:56:51;4.00;;;1.90;;
21894;SDS011;11112;51.270;7.224;2023-05-07T04:59:19;4.82;;;1.80;;
21894;SDS011;11112;51.270;7.224;2023-05-07T05:01:46;5.00;;;1.83;;
21894;SDS011;11112;51.270;7.224;2023-05-07T05:04:13;4.50;;;2.00;;
21894;SDS011;11112;51.270;7.224;2023-05-07T05:06:42;3.92;;;1.77;;
21894;SDS011;11112;51.270;7.224;2023-05-07T05:09:12;3.78;;;2.00;;
21894;SDS011;11112;51.270;7.224;2023-05-07T05:11:41;3.28;;;1.67;;
21894;SDS011;11112;51.270;7.224;2023-05-07T05:14:08;4.43;;;1.85;;
21894;SDS011;11112;51.270;7.224;2023-05-07T05:16:35;4.82;;;1.90;;
21894;SDS011;11112;51.270;7.224;2023-05-07T05:19:04;3.80;;;1.58;;
21894;SDS011;11112;51.270;7.224;2023-05-07T05:21:31;2.40;;;1.70;;
21894;SDS011;11112;51.270;7.224;2023-05-07T05:23:59;3.45;;;1.98;;
21894;SDS011;11112;51.270;7.224;2023-05-07T05:26:28;2.70;;;1.60;;
21894;SDS011;11112;51.270;7.224;2023-05-07T05:28:56;4.70;;;1.90;;
21894;SDS011;11112;51.270;7.224;2023-05-07T05:31:23;4.68;;;1.90;;
21894;SDS011;11112;51.270;7.224;2023-05-07T05:33:50;3.83;;;1.70;;
21894;SDS011;11112;51.270;7.224;2023-05-07T05:36:18;5.40;;;1.80;;
21894;SDS011;11112;51.270;7.224;2023-05-07T05:38:46;3.92;;;1.83;;
21894;SDS011;11112;51.270;7.224;2023-05-07T05:41:13;5.25;;;2.00;;
21894;SDS011;11112;51.270;7.224;2023-05-07T05:43:42;2.95;;;2.00;;
21894;SDS011;11112;51.270;7.224;2023-05-07T05:46:09;4.47;;;2.15;;
21894;SDS011;11112;51.270;7.224;2023-05-07T05:48:37;3.72;;;1.70;;
21894;SDS011;11112;51.270;7.224;2023-05-07T05:51:04;3.75;;;1.90;;
21894;SDS011;11112;51.270;7.224;2023-05-07T05:53:32;5.47;;;2.13;;
21894;SDS011;11112;51.270;7.224;2023-05-07T05:56:02;6.10;;;1.90;;
21894;SDS011;11112;51.270;7.224;2023-05-07T05:58:32;2.25;;;1.70;;
21894;SDS011;11112;51.270;7.224;2023-05-07T06:01:01;6.25;;;1.90;;
21894;SDS011;11112;51.270;7.224;2023-05-07T06:03:30;2.65;;;1.90;;
21894;SDS011;11112;51.270;7.224;2023-05-07T06:05:58;4.88;;;1.90;;
21894;SDS011;11112;51.270;7.224;2023-05-07T06:08:28;3.13;;;1.70;;
21894;SDS011;11112;51.270;7.224;2023-05-07T06:10:56;2.38;;;1.70;;
21894;SDS011;11112;51.270;7.224;2023-05-07T06:13:24;3.28;;;1.90;;
21894;SDS011;11112;51.270;7.224;2023-05-07T06:15:52;6.22;;;1.98;;
21894;SDS011;11112;51.270;7.224;2023-05-07T06:18:21;3.40;;;1.73;;
21894;SDS011;11112;51.270;7.224;2023-05-07T06:20:48;3.80;;;1.90;;
21894;SDS011;11112;51.270;7.224;2023-05-07T06:23:16;6.30;;;2.33;;
21894;SDS011;11112;51.270;7.224;2023-05-07T06:25:45;4.80;;;2.55;;
21894;SDS011;11112;51.270;7.224;2023-05-07T06:28:15;5.18;;;2.00;;
21894;SDS011;11112;51.270;7.224;2023-05-07T06:30:44;4.43;;;2.15;;
21894;SDS011;11112;51.270;7.224;2023-05-07T06:33:12;3.88;;;2.17;;
21894;SDS011;11112;51.270;7.224;2023-05-07T06:35:41;3.47;;;2.15;;
21894;SDS011;11112;51.270;7.224;2023-05-07T06:38:08;3.72;;;1.98;;
21894;SDS011;11112;51.270;7.224;2023-05-07T06:40:37;4.75;;;2.33;;
21894;SDS011;11112;51.270;7.224;2023-05-07T06:43:04;4.72;;;2.10;;
21894;SDS011;11112;51.270;7.224;2023-05-07T06:45:31;3.45;;;2.00;;
21894;SDS011;11112;51.270;7.224;2023-05-07T06:47:58;4.43;;;1.90;;
21894;SDS011;11112;51.270;7.224;2023-05-07T06:50:26;4.05;;;2.28;;
21894;SDS011;11112;51.270;7.224;2023-05-07T06:52:55;4.15;;;1.95;;
21894;SDS011;11112;51.270;7.224;2023-05-07T06:55:22;4.20;;;2.00;;
21894;SDS011;11112;51.270;7.224;2023-05-07T06:57:50;3.30;;;1.98;;
21894;SDS011;11112;51.270;7.224;2023-05-07T07:00:18;3.20;;;2.10;;
21894;SDS011;11112;51.270;7.224;2023-05-07T07:02:47;2.90;;;1.90;;
21894;SDS011;11112;51.270;7.224;2023-05-07T07:05:15;5.80;;;1.80;;
21894;SDS011;11112;51.270;7.224;2023-05-07T07:07:42;5.80;;;2.05;;
21894;SDS011;11112;51.270;7.224;2023-05-07T07:10:19;3.50;;;1.90;;
21894;SDS011;11112;51.270;7.224;2023-05-07T07:12:46;4.05;;;1.63;;
21894;SDS011;11112;51.270;7.224;2023-05-07T07:15:14;2.60;;;1.48;;
21894;SDS011;11112;51.270;7.224;2023-05-07T07:17:41;5.65;;;1.40;;
21894;SDS011;11112;51.270;7.224;2023-05-07T07:20:10;2.25;;;1.48;;
21894;SDS011;11112;51.270;7.224;2023-05-07T07:22:43;3.13;;;1.42;;
21894;SDS011;11112;51.270;7.224;2023-05-07T07:25:10;3.85;;;1.38;;
21894;SDS011;11112;51.270;7.224;2023-05-07T07:27:42;4.00;;;1.50;;
21894;SDS011;11112;51.270;7.224;2023-05-07T07:30:11;3.53;;;1.50;;
21894;SDS011;11112;51.270;7.224;2023-05-07T07:32:40;2.55;;;1.23;;
21894;SDS011;11112;51.270;7.224;2023-05-07T07:35:08;3.92;;;1.58;;
21894;SDS011;11112;51.270;7.224;2023-05-07T07:37:36;5.75;;;1.60;;
21894;SDS011;11112;51.270;7.224;2023-05-07T07:40:03;4.03;;;1.60;;
21894;SDS011;11112;51.270;7.224;2023-05-07T07:42:31;3.35;;;1.52;;
21894;SDS011;11112;51.270;7.224;2023-05-07T07:45:01;5.10;;;1.30;;
21894;SDS011;11112;51.270;7.224;2023-05-07T07:47:28;3.58;;;1.60;;
21894;SDS011;11112;51.270;7.224;2023-05-07T07:49:57;3.75;;;1.60;;
21894;SDS011;11112;51.270;7.224;2023-05-07T07:52:24;3.40;;;1.63;;
21894;SDS011;11112;51.270;7.224;2023-05-07T07:54:52;5.22;;;1.60;;
21894;SDS011;11112;51.270;7.224;2023-05-07T07:57:19;2.13;;;1.20;;
21894;SDS011;11112;51.270;7.224;2023-05-07T07:59:47;5.82;;;2.28;;
21894;SDS011;11112;51.270;7.224;2023-05-07T08:02:17;3.13;;;1.30;;
21894;SDS011;11112;51.270;7.224;2023-05-07T08:04:46;2.75;;;1.40;;
21894;SDS011;11112;51.270;7.224;2023-05-07T08:07:14;2.58;;;1.20;;
21894;SDS011;11112;51.270;7.224;2023-05-07T08:09:44;3.63;;;1.55;;
21894;SDS011;11112;51.270;7.224;2023-05-07T08:12:12;3.72;;;1.38;;
21894;SDS011;11112;51.270;7.224;2023-05-07T08:14:40;5.38;;;2.03;;
21894;SDS011;11112;51.270;7.224;2023-05-07T08:17:07;3.42;;;1.90;;
21894;SDS011;11112;51.270;7.224;2023-05-07T08:19:36;3.83;;;2.17;;
21894;SDS011;11112;51.270;7.224;2023-05-07T08:22:04;2.58;;;1.85;;
21894;SDS011;11112;51.270;7.224;2023-05-07T08:24:32;3.95;;;1.60;;
21894;SDS011;11112;51.270;7.224;2023-05-07T08:27:00;4.00;;;1.60;;
21894;SDS011;11112;51.270;7.224;2023-05-07T08:29:28;5.97;;;2.80;;
21894;SDS011;11112;51.270;7.224;2023-05-07T08:31:55;3.30;;;1.77;;
21894;SDS011;11112;51.270;7.224;2023-05-07T08:34:23;3.67;;;1.30;;
21894;SDS011;11112;51.270;7.224;2023-05-07T08:36:51;3.65;;;1.05;;
21894;SDS011;11112;51.270;7.224;2023-05-07T08:39:18;3.28;;;1.20;;
21894;SDS011;11112;51.270;7.224;2023-05-07T08:41:45;1.95;;;1.13;;
21894;SDS011;11112;51.270;7.224;2023-05-07T08:44:14;3.25;;;1.30;;
21894;SDS011;11112;51.270;7.224;2023-05-07T08:46:47;3.08;;;1.10;;
21894;SDS011;11112;51.270;7.224;2023-05-07T08:49:19;3.15;;;1.25;;
21894;SDS011;11112;51.270;7.224;2023-05-07T08:51:47;2.38;;;1.17;;
21894;SDS011;11112;51.270;7.224;2023-05-07T08:54:19;1.92;;;0.90;;
21894;SDS011;11112;51.270;7.224;2023-05-07T08:56:48;4.18;;;1.00;;
21894;SDS011;11112;51.270;7.224;2023-05-07T08:59:15;2.47;;;1.00;;
21894;SDS011;11112;51.270;7.224;2023-05-07T09:01:44;3.45;;;1.00;;
21894;SDS011;11112;51.270;7.224;2023-05-07T09:04:11;4.18;;;1.15;;
21894;SDS011;11112;51.270;7.224;2023-05-07T09:06:40;2.80;;;1.20;;
21894;SDS011;11112;51.270;7.224;2023-05-07T09:09:07;2.40;;;1.10;;
21894;SDS011;11112;51.270;7.224;2023-05-07T09:11:36;2.65;;;1.20;;
21894;SDS011;11112;51.270;7.224;2023-05-07T09:14:04;2.40;;;1.10;;
21894;SDS011;11112;51.270;7.224;2023-05-07T09:16:31;2.50;;;1.17;;
21894;SDS011;11112;51.270;7.224;2023-05-07T09:18:58;3.45;;;2.08;;
21894;SDS011;11112;51.270;7.224;2023-05-07T09:21:26;3.35;;;1.40;;
21894;SDS011;11112;51.270;7.224;2023-05-07T09:23:54;1.80;;;1.10;;
21894;SDS011;11112;51.270;7.224;2023-05-07T09:26:22;3.63;;;1.00;;
21894;SDS011;11112;51.270;7.224;2023-05-07T09:28:54;1.75;;;1.00;;
21894;SDS011;11112;51.270;7.224;2023-05-07T09:31:21;2.58;;;0.60;;
21894;SDS011;11112;51.270;7.224;2023-05-07T09:33:52;2.08;;;0.70;;
21894;SDS011;11112;51.270;7.224;2023-05-07T09:36:22;3.72;;;1.00;;
21894;SDS011;11112;51.270;7.224;2023-05-07T09:38:51;3.08;;;0.82;;
21894;SDS011;11112;51.270;7.224;2023-05-07T09:41:19;2.85;;;1.10;;
21894;SDS011;11112;51.270;7.224;2023-05-07T09:43:47;3.83;;;1.33;;
21894;SDS011;11112;51.270;7.224;2023-05-07T09:46:24;1.88;;;0.90;;
21894;SDS011;11112;51.270;7.224;2023-05-07T09:48:57;3.45;;;0.73;;
21894;SDS011;11112;51.270;7.224;2023-05-07T09:51:28;1.75;;;0.80;;
21894;SDS011;11112;51.270;7.224;2023-05-07T09:53:59;3.05;;;0.80;;
21894;SDS011;11112;51.270;7.224;2023-05-07T09:56:28;3.08;;;1.05;;
21894;SDS011;11112;51.270;7.224;2023-05-07T09:58:58;1.58;;;0.65;;
21894;SDS011;11112;51.270;7.224;2023-05-07T10:01:27;3.67;;;1.00;;
21894;SDS011;11112;51.270;7.224;2023-05-07T10:03:57;2.15;;;0.70;;
21894;SDS011;11112;51.270;7.224;2023-05-07T10:06:25;2.00;;;0.90;;
21894;SDS011;11112;51.270;7.224;2023-05-07T10:08:55;2.55;;;0.68;;
21894;SDS011;11112;51.270;7.224;2023-05-07T10:11:23;1.35;;;0.70;;
21894;SDS011;11112;51.270;7.224;2023-05-07T10:13:53;2.33;;;1.38;;
21894;SDS011;11112;51.270;7.224;2023-05-07T10:16:22;2.42;;;0.80;;
21894;SDS011;11112;51.270;7.224;2023-05-07T10:18:51;3.22;;;0.70;;
21894;SDS011;11112;51.270;7.224;2023-05-07T10:21:21;2.78;;;1.27;;
21894;SDS011;11112;51.270;7.224;2023-05-07T10:23:51;2.17;;;1.10;;
21894;SDS011;11112;51.270;7.224;2023-05-07T10:26:25;1.98;;;0.90;;
21894;SDS011;11112;51.270;7.224;2023-05-07T10:28:58;6.07;;;1.90;;
21894;SDS011;11112;51.270;7.224;2023-05-07T10:31:42;3.40;;;1.30;;
21894;SDS011;11112;51.270;7.224;2023-05-07T10:34:21;4.18;;;1.33;;
21894;SDS011;11112;51.270;7.224;2023-05-07T10:36:54;2.78;;;1.08;;
21894;SDS011;11112;51.270;7.224;2023-05-07T10:39:23;4.22;;;1.20;;
21894;SDS011;11112;51.270;7.224;2023-05-07T10:41:51;2.25;;;1.10;;
21894;SDS011;11112;51.270;7.224;2023-05-07T10:44:25;3.17;;;1.20;;
21894;SDS011;11112;51.270;7.224;2023-05-07T10:47:07;2.53;;;1.10;;
21894;SDS011;11112;51.270;7.224;2023-05-07T10:49:35;5.63;;;1.17;;
21894;SDS011;11112;51.270;7.224;2023-05-07T10:52:13;2.13;;;1.10;;
21894;SDS011;11112;51.270;7.224;2023-05-07T10:54:43;3.28;;;1.15;;
21894;SDS011;11112;51.270;7.224;2023-05-07T11:00:00;3.03;;;1.23;;
21894;SDS011;11112;51.270;7.224;2023-05-07T11:05:34;5.45;;;1.35;;
21894;SDS011;11112;51.270;7.224;2023-05-07T11:08:02;3.20;;;1.30;;
21894;SDS011;11112;51.270;7.224;2023-05-07T11:10:50;3.15;;;1.58;;
21894;SDS011;11112;51.270;7.224;2023-05-07T11:16:16;4.57;;;1.63;;
21894;SDS011;11112;51.270;7.224;2023-05-07T11:18:50;5.30;;;1.75;;
21894;SDS011;11112;51.270;7.224;2023-05-07T11:21:34;3.50;;;1.70;;
21894;SDS011;11112;51.270;7.224;2023-05-07T11:24:04;5.30;;;1.77;;
21894;SDS011;11112;51.270;7.224;2023-05-07T11:26:41;3.85;;;1.70;;
21894;SDS011;11112;51.270;7.224;2023-05-07T11:29:14;6.78;;;2.20;;
21894;SDS011;11112;51.270;7.224;2023-05-07T11:31:43;3.33;;;1.70;;
21894;SDS011;11112;51.270;7.224;2023-05-07T11:34:16;3.40;;;1.60;;
21894;SDS011;11112;51.270;7.224;2023-05-07T11:36:49;4.05;;;1.45;;
21894;SDS011;11112;51.270;7.224;2023-05-07T11:39:24;7.05;;;1.88;;
21894;SDS011;11112;51.270;7.224;2023-05-07T11:42:03;7.72;;;1.95;;
21894;SDS011;11112;51.270;7.224;2023-05-07T11:44:41;5.13;;;2.00;;
21894;SDS011;11112;51.270;7.224;2023-05-07T11:47:11;5.28;;;2.00;;
21894;SDS011;11112;51.270;7.224;2023-05-07T11:49:47;5.47;;;2.20;;
21894;SDS011;11112;51.270;7.224;2023-05-07T11:52:16;6.78;;;2.53;;
21894;SDS011;11112;51.270;7.224;2023-05-07T11:54:48;3.22;;;1.70;;
21894;SDS011;11112;51.270;7.224;2023-05-07T11:57:15;3.95;;;2.25;;
21894;SDS011;11112;51.270;7.224;2023-05-07T11:59:43;5.15;;;2.38;;
21894;SDS011;11112;51.270;7.224;2023-05-07T12:02:10;6.57;;;2.90;;
21894;SDS011;11112;51.270;7.224;2023-05-07T12:04:40;5.00;;;3.13;;
21894;SDS011;11112;51.270;7.224;2023-05-07T12:07:12;5.55;;;2.90;;
21894;SDS011;11112;51.270;7.224;2023-05-07T12:09:39;4.18;;;2.47;;
21894;SDS011;11112;51.270;7.224;2023-05-07T12:12:07;6.00;;;2.10;;
21894;SDS011;11112;51.270;7.224;2023-05-07T12:14:37;4.47;;;1.80;;
21894;SDS011;11112;51.270;7.224;2023-05-07T12:17:08;7.68;;;2.15;;
21894;SDS011;11112;51.270;7.224;2023-05-07T12:19:38;8.05;;;2.28;;
21894;SDS011;11112;51.270;7.224;2023-05-07T12:22:10;5.65;;;2.53;;
21894;SDS011;11112;51.270;7.224;2023-05-07T12:24:44;10.05;;;2.60;;
21894;SDS011;11112;51.270;7.224;2023-05-07T12:27:15;4.80;;;2.67;;
21894;SDS011;11112;51.270;7.224;2023-05-07T12:29:44;4.60;;;3.00;;
21894;SDS011;11112;51.270;7.224;2023-05-07T12:32:12;5.65;;;3.42;;
21894;SDS011;11112;51.270;7.224;2023-05-07T12:34:41;9.07;;;3.28;;
21894;SDS011;11112;51.270;7.224;2023-05-07T12:37:09;5.45;;;3.53;;
21894;SDS011;11112;51.270;7.224;2023-05-07T12:39:42;5.65;;;3.35;;
21894;SDS011;11112;51.270;7.224;2023-05-07T12:42:15;5.57;;;4.00;;
21894;SDS011;11112;51.270;7.224;2023-05-07T12:44:45;7.60;;;4.10;;
21894;SDS011;11112;51.270;7.224;2023-05-07T12:47:14;8.88;;;4.72;;
21894;SDS011;11112;51.270;7.224;2023-05-07T12:49:45;5.35;;;4.13;;
21894;SDS011;11112;51.270;7.224;2023-05-07T12:52:13;6.57;;;3.40;;
21894;SDS011;11112;51.270;7.224;2023-05-07T12:54:42;6.53;;;3.55;;
21894;SDS011;11112;51.270;7.224;2023-05-07T12:57:11;6.75;;;4.10;;
21894;SDS011;11112;51.270;7.224;2023-05-07T12:59:40;6.68;;;4.18;;
21894;SDS011;11112;51.270;7.224;2023-05-07T13:02:09;6.50;;;4.55;;
21894;SDS011;11112;51.270;7.224;2023-05-07T13:04:36;6.82;;;4.32;;
21894;SDS011;11112;51.270;7.224;2023-05-07T13:07:03;6.75;;;2.90;;
21894;SDS011;11112;51.270;7.224;2023-05-07T13:09:31;4.40;;;2.85;;
21894;SDS011;11112;51.270;7.224;2023-05-07T13:12:00;5.03;;;2.42;;
21894;SDS011;11112;51.270;7.224;2023-05-07T13:14:27;5.22;;;1.90;;
21894;SDS011;11112;51.270;7.224;2023-05-07T13:16:54;5.68;;;2.00;;
21894;SDS011;11112;51.270;7.224;2023-05-07T13:19:22;3.45;;;1.50;;
21894;SDS011;11112;51.270;7.224;2023-05-07T13:21:51;3.97;;;1.40;;
21894;SDS011;11112;51.270;7.224;2023-05-07T13:24:19;3.63;;;1.50;;
21894;SDS011;11112;51.270;7.224;2023-05-07T13:26:46;4.30;;;1.80;;
21894;SDS011;11112;51.270;7.224;2023-05-07T13:29:15;4.45;;;1.42;;
21894;SDS011;11112;51.270;7.224;2023-05-07T13:31:42;3.90;;;1.30;;
21894;SDS011;11112;51.270;7.224;2023-05-07T13:34:10;4.25;;;1.42;;
21894;SDS011;11112;51.270;7.224;2023-05-07T13:36:38;4.65;;;1.40;;
21894;SDS011;11112;51.270;7.224;2023-05-07T13:39:07;2.90;;;1.17;;
21894;SDS011;11112;51.270;7.224;2023-05-07T13:41:35;3.58;;;1.20;;
21894;SDS011;11112;51.270;7.224;2023-05-07T13:44:02;4.78;;;1.33;;
21894;SDS011;11112;51.270;7.224;2023-05-07T13:46:31;3.17;;;1.10;;
21894;SDS011;11112;51.270;7.224;2023-05-07T13:48:59;2.50;;;1.20;;
21894;SDS011;11112;51.270;7.224;2023-05-07T13:51:26;3.08;;;1.30;;
21894;SDS011;11112;51.270;7.224;2023-05-07T13:53:53;2.35;;;1.17;;
21894;SDS011;11112;51.270;7.224;2023-05-07T13:56:21;3.88;;;1.30;;
21894;SDS011;11112;51.270;7.224;2023-05-07T13:58:48;3.85;;;1.40;;
21894;SDS011;11112;51.270;7.224;2023-05-07T14:01:15;2.60;;;1.60;;
21894;SDS011;11112;51.270;7.224;2023-05-07T14:03:43;3.72;;;1.90;;
21894;SDS011;11112;51.270;7.224;2023-05-07T14:06:11;3.25;;;2.10;;
21894;SDS011;11112;51.270;7.224;2023-05-07T14:08:38;6.13;;;2.80;;
21894;SDS011;11112;51.270;7.224;2023-05-07T14:11:05;5.55;;;2.72;;
21894;SDS011;11112;51.270;7.224;2023-05-07T14:13:36;6.10;;;3.50;;
21894;SDS011;11112;51.270;7.224;2023-05-07T14:16:04;7.43;;;4.70;;
21894;SDS011;11112;51.270;7.224;2023-05-07T14:18:31;8.35;;;5.35;;
21894;SDS011;11112;51.270;7.224;2023-05-07T14:21:00;8.30;;;5.68;;
21894;SDS011;11112;51.270;7.224;2023-05-07T14:23:28;7.95;;;6.15;;
21894;SDS011;11112;51.270;7.224;2023-05-07T14:25:57;7.78;;;6.18;;
21894;SDS011;11112;51.270;7.224;2023-05-07T14:28:25;9.85;;;6.63;;
21894;SDS011;11112;51.270;7.224;2023-05-07T14:30:55;9.77;;;7.82;;
21894;SDS011;11112;51.270;7.224;2023-05-07T14:33:22;9.65;;;7.65;;
21894;SDS011;11112;51.270;7.224;2023-05-07T14:35:50;11.18;;;8.25;;
21894;SDS011;11112;51.270;7.224;2023-05-07T14:38:19;14.98;;;8.20;;
21894;SDS011;11112;51.270;7.224;2023-05-07T14:40:47;10.35;;;7.47;;
21894;SDS011;11112;51.270;7.224;2023-05-07T14:43:15;8.60;;;7.20;;
21894;SDS011;11112;51.270;7.224;2023-05-07T14:45:42;9.88;;;6.43;;
21894;SDS011;11112;51.270;7.224;2023-05-07T14:48:12;9.45;;;6.65;;
21894;SDS011;11112;51.270;7.224;2023-05-07T14:50:41;7.90;;;6.30;;
21894;SDS011;11112;51.270;7.224;2023-05-07T14:53:08;8.48;;;5.88;;
21894;SDS011;11112;51.270;7.224;2023-05-07T14:55:37;9.38;;;5.85;;
21894;SDS011;11112;51.270;7.224;2023-05-07T14:58:04;7.38;;;5.85;;
21894;SDS011;11112;51.270;7.224;2023-05-07T15:00:31;8.07;;;5.55;;
21894;SDS011;11112;51.270;7.224;2023-05-07T15:03:02;7.72;;;5.28;;
21894;SDS011;11112;51.270;7.224;2023-05-07T15:05:34;7.53;;;5.38;;
21894;SDS011;11112;51.270;7.224;2023-05-07T15:08:06;6.63;;;4.95;;